Time;durP1;ratioP1;P1;durP2;ratioP2;P2;SDS_P1;SDS_P2;PMS_P1;PMS_P2;Temp;Humidity;BMP_temperature;BMP_pressure;BME280_temperature;BME280_humidity;BME280_pressure;Samples;Min_cycle;Max_cycle;Signal;HPM_P1;HPM_P2
2022/04/04 00:01:08;;;;;;;12.93;11.10;;;;;;;;;;5062790;28;20217;-67
2022/04/04 00:03:34;;;;;;;14.10;10.15;;;;;;;;;;5063068;28;20250;-67
2022/04/04 00:06:00;;;;;;;11.93;10.68;;;;;;;;;;5062721;28;20385;-67
2022/04/04 00:08:27;;;;;;;15.80;11.05;;;;;;;;;;5062837;28;20197;-67
2022/04/04 00:10:54;;;;;;;12.63;11.13;;;;;;;;;;5062912;28;20193;-67
2022/04/04 00:13:20;;;;;;;13.43;11.25;;;;;;;;;;5062747;28;20505;-67
2022/04/04 00:15:47;;;;;;;13.40;10.50;;;;;;;;;;5062630;28;20512;-67
2022/04/04 00:18:15;;;;;;;16.15;11.45;;;;;;;;;;5062672;28;20219;-67
2022/04/04 00:20:41;;;;;;;13.88;11.25;;;;;;;;;;5062846;28;20221;-67
2022/04/04 00:23:12;;;;;;;14.18;11.38;;;;;;;;;;5062780;28;20551;-67
2022/04/04 00:25:38;;;;;;;12.38;11.13;;;;;;;;;;5062403;28;20205;-67
2022/04/04 00:28:04;;;;;;;13.43;11.35;;;;;;;;;;5062256;28;20197;-67
2022/04/04 00:30:30;;;;;;;13.88;11.15;;;;;;;;;;5062405;28;20197;-67
2022/04/04 00:32:57;;;;;;;16.25;12.02;;;;;;;;;;5062434;28;20197;-67
2022/04/04 00:35:25;;;;;;;14.43;11.45;;;;;;;;;;5062513;28;20196;-67
2022/04/04 00:37:52;;;;;;;15.93;11.52;;;;;;;;;;5062244;28;20422;-67
2022/04/04 00:40:18;;;;;;;15.63;11.80;;;;;;;;;;5062319;28;20204;-67
2022/04/04 00:42:45;;;;;;;14.13;11.63;;;;;;;;;;5062203;28;20225;-67
2022/04/04 00:45:11;;;;;;;16.35;11.68;;;;;;;;;;5062550;28;20243;-67
2022/04/04 00:47:37;;;;;;;15.93;11.85;;;;;;;;;;5061883;28;20236;-67
2022/04/04 00:50:04;;;;;;;14.88;12.05;;;;;;;;;;5062355;28;20197;-67
2022/04/04 00:52:32;;;;;;;17.90;12.48;;;;;;;;;;5062240;28;20193;-67
2022/04/04 00:54:58;;;;;;;15.73;12.77;;;;;;;;;;5062135;28;20242;-67
2022/04/04 00:57:24;;;;;;;19.50;11.88;;;;;;;;;;5061797;28;20200;-67
2022/04/04 00:59:51;;;;;;;15.40;12.43;;;;;;;;;;5062261;28;20197;-67
2022/04/04 01:02:17;;;;;;;15.95;11.77;;;;;;;;;;5062162;28;20532;-67
2022/04/04 01:04:43;;;;;;;15.65;12.68;;;;;;;;;;5061905;28;20201;-67
2022/04/04 01:07:09;;;;;;;14.30;11.95;;;;;;;;;;5061862;28;20243;-67
2022/04/04 01:09:37;;;;;;;20.65;12.77;;;;;;;;;;5061969;28;20242;-67
2022/04/04 01:12:07;;;;;;;16.23;12.57;;;;;;;;;;5061913;28;20193;-67
2022/04/04 01:14:34;;;;;;;16.77;12.45;;;;;;;;;;5061884;28;20197;-67
2022/04/04 01:17:00;;;;;;;13.77;12.00;;;;;;;;;;5061626;28;20193;-67
2022/04/04 01:19:26;;;;;;;18.63;13.20;;;;;;;;;;5061976;28;20197;-67
2022/04/04 01:21:53;;;;;;;21.67;14.18;;;;;;;;;;5061772;28;20259;-67
2022/04/04 01:24:21;;;;;;;18.40;13.15;;;;;;;;;;5061851;28;20197;-67
2022/04/04 01:26:48;;;;;;;16.13;13.23;;;;;;;;;;5061477;28;20235;-67
2022/04/04 01:29:14;;;;;;;15.60;13.02;;;;;;;;;;5061685;28;20197;-67
2022/04/04 01:31:41;;;;;;;16.58;13.07;;;;;;;;;;5061826;28;20227;-67
2022/04/04 01:34:07;;;;;;;16.73;14.07;;;;;;;;;;5062039;28;20197;-67
2022/04/04 01:36:33;;;;;;;17.10;12.88;;;;;;;;;;5061553;28;20235;-67
2022/04/04 01:39:00;;;;;;;18.48;13.15;;;;;;;;;;5063797;28;20523;-67
2022/04/04 01:41:27;;;;;;;15.68;12.65;;;;;;;;;;5065463;28;20221;-67
2022/04/04 01:43:54;;;;;;;16.05;13.25;;;;;;;;;;5065705;28;20209;-67
2022/04/04 01:46:27;;;;;;;16.80;13.25;;;;;;;;;;5065468;28;20400;-67
2022/04/04 01:48:53;;;;;;;15.70;13.18;;;;;;;;;;5065443;28;20211;-67
2022/04/04 01:51:20;;;;;;;17.58;13.40;;;;;;;;;;5065631;28;20193;-67
2022/04/04 01:53:46;;;;;;;15.80;13.48;;;;;;;;;;5065518;28;20527;-67
2022/04/04 01:56:13;;;;;;;15.55;13.45;;;;;;;;;;5065174;28;20197;-67
2022/04/04 01:58:41;;;;;;;18.10;14.20;;;;;;;;;;5065380;28;20528;-67
2022/04/04 02:01:10;;;;;;;17.50;13.45;;;;;;;;;;5065108;28;20197;-67
2022/04/04 02:03:36;;;;;;;17.52;12.88;;;;;;;;;;5065342;28;20220;-67
2022/04/04 02:06:03;;;;;;;15.68;12.77;;;;;;;;;;5065310;28;20532;-67
2022/04/04 02:08:29;;;;;;;17.33;12.93;;;;;;;;;;5065007;28;20450;-67
2022/04/04 02:10:55;;;;;;;16.60;13.45;;;;;;;;;;5065018;28;20201;-67
2022/04/04 02:13:23;;;;;;;17.65;12.95;;;;;;;;;;5065448;28;20492;-67
2022/04/04 02:15:50;;;;;;;16.02;12.75;;;;;;;;;;5064791;28;20242;-67
2022/04/04 02:18:17;;;;;;;16.00;12.50;;;;;;;;;;5064936;28;20200;-67
2022/04/04 02:20:43;;;;;;;17.33;13.05;;;;;;;;;;5065076;28;20196;-67
2022/04/04 02:23:10;;;;;;;19.33;13.15;;;;;;;;;;5064786;28;20541;-67
2022/04/04 02:25:37;;;;;;;16.40;12.80;;;;;;;;;;5064826;28;20398;-67
2022/04/04 02:28:03;;;;;;;17.75;12.55;;;;;;;;;;5064991;28;20197;-67
2022/04/04 02:30:30;;;;;;;14.93;11.90;;;;;;;;;;5064575;28;20200;-67
2022/04/04 02:32:58;;;;;;;20.27;12.50;;;;;;;;;;5064859;28;20501;-67
2022/04/04 02:35:24;;;;;;;17.00;11.43;;;;;;;;;;5064819;28;20197;-67
2022/04/04 02:37:50;;;;;;;20.48;13.20;;;;;;;;;;5064318;28;20201;-67
2022/04/04 02:40:16;;;;;;;19.38;13.57;;;;;;;;;;5064643;28;20206;-67
2022/04/04 02:42:43;;;;;;;16.95;12.35;;;;;;;;;;5064425;28;20469;-67
2022/04/04 02:45:09;;;;;;;17.65;12.90;;;;;;;;;;5064299;28;20203;-67
2022/04/04 02:47:35;;;;;;;19.38;13.05;;;;;;;;;;5064356;28;20204;-67
2022/04/04 02:50:03;;;;;;;16.85;13.23;;;;;;;;;;5063314;28;20201;-67
2022/04/04 02:52:29;;;;;;;15.82;12.73;;;;;;;;;;5064335;28;20231;-67
2022/04/04 02:54:56;;;;;;;17.27;13.57;;;;;;;;;;5064270;28;20243;-67
2022/04/04 02:57:21;;;;;;;18.23;13.98;;;;;;;;;;5063999;28;20201;-67
2022/04/04 02:59:48;;;;;;;16.30;14.20;;;;;;;;;;5063949;28;20250;-67
2022/04/04 03:02:14;;;;;;;19.25;13.63;;;;;;;;;;5064206;28;20213;-67
2022/04/04 03:04:42;;;;;;;17.67;13.10;;;;;;;;;;5064135;28;20197;-67
2022/04/04 03:07:10;;;;;;;15.73;13.10;;;;;;;;;;5063674;28;20197;-67
2022/04/04 03:09:37;;;;;;;17.33;13.93;;;;;;;;;;5063995;28;20201;-67
2022/04/04 03:12:04;;;;;;;19.55;12.82;;;;;;;;;;5063784;28;20240;-66
2022/04/04 03:14:30;;;;;;;16.48;13.60;;;;;;;;;;5064011;28;20243;-67
2022/04/04 03:16:56;;;;;;;17.13;13.50;;;;;;;;;;5063718;28;20203;-67
2022/04/04 03:19:23;;;;;;;15.27;12.40;;;;;;;;;;5063772;28;20197;-67
2022/04/04 03:21:49;;;;;;;20.27;14.32;;;;;;;;;;5063702;28;20217;-67
2022/04/04 03:24:16;;;;;;;17.45;13.75;;;;;;;;;;5063675;28;20236;-67
2022/04/04 03:26:43;;;;;;;18.05;14.00;;;;;;;;;;5063295;28;20205;-67
2022/04/04 03:29:09;;;;;;;15.35;13.70;;;;;;;;;;5063680;28;20197;-67
2022/04/04 03:31:35;;;;;;;17.98;13.80;;;;;;;;;;5063475;28;20198;-67
2022/04/04 03:34:03;;;;;;;18.48;14.02;;;;;;;;;;5063320;28;20197;-67
2022/04/04 03:36:30;;;;;;;21.20;14.20;;;;;;;;;;5063162;28;20201;-67
2022/04/04 03:38:56;;;;;;;22.50;13.30;;;;;;;;;;5063519;28;20204;-67
2022/04/04 03:41:23;;;;;;;19.20;13.88;;;;;;;;;;5063225;28;20243;-67
2022/04/04 03:43:50;;;;;;;18.63;14.10;;;;;;;;;;5063510;28;20200;-67
2022/04/04 03:46:16;;;;;;;16.95;13.65;;;;;;;;;;5063193;28;20197;-67
2022/04/04 03:48:42;;;;;;;16.15;13.05;;;;;;;;;;5063393;28;20372;-67
2022/04/04 03:51:09;;;;;;;18.33;13.45;;;;;;;;;;5063198;28;20212;-67
2022/04/04 03:53:35;;;;;;;16.35;13.35;;;;;;;;;;5063117;28;20199;-67
2022/04/04 03:56:02;;;;;;;16.15;13.00;;;;;;;;;;5063036;28;20201;-67
2022/04/04 03:58:29;;;;;;;17.17;12.90;;;;;;;;;;5063383;28;20197;-67
2022/04/04 04:00:55;;;;;;;18.35;13.15;;;;;;;;;;5062851;28;20212;-67
2022/04/04 04:03:22;;;;;;;21.67;14.77;;;;;;;;;;5062985;28;20217;-66
2022/04/04 04:05:48;;;;;;;22.65;16.38;;;;;;;;;;5062807;28;20263;-67
2022/04/04 04:08:14;;;;;;;21.67;15.32;;;;;;;;;;5062581;28;20197;-67
2022/04/04 04:10:40;;;;;;;19.85;15.23;;;;;;;;;;5062653;28;20196;-67
2022/04/04 04:13:07;;;;;;;21.27;15.07;;;;;;;;;;5063085;28;20197;-67
2022/04/04 04:15:34;;;;;;;19.83;14.50;;;;;;;;;;5062797;28;20197;-67
2022/04/04 04:18:01;;;;;;;22.10;14.13;;;;;;;;;;5062858;28;20201;-67
2022/04/04 04:20:31;;;;;;;17.38;14.23;;;;;;;;;;5062988;28;20196;-67
2022/04/04 04:22:58;;;;;;;18.70;13.38;;;;;;;;;;5062283;28;20568;-67
2022/04/04 04:25:27;;;;;;;15.98;13.57;;;;;;;;;;5062621;28;20209;-67
2022/04/04 04:27:54;;;;;;;18.85;14.40;;;;;;;;;;5062629;28;20204;-67
2022/04/04 04:30:20;;;;;;;18.33;13.32;;;;;;;;;;5062522;28;20243;-67
2022/04/04 04:32:49;;;;;;;20.52;14.60;;;;;;;;;;5062536;28;20194;-67
2022/04/04 04:35:16;;;;;;;20.38;15.50;;;;;;;;;;5062377;28;20197;-67
2022/04/04 04:37:42;;;;;;;16.23;13.68;;;;;;;;;;5062069;28;20214;-68
2022/04/04 04:40:09;;;;;;;20.00;13.32;;;;;;;;;;5062412;28;20268;-68
2022/04/04 04:42:36;;;;;;;19.55;12.68;;;;;;;;;;5062137;28;20217;-68
2022/04/04 04:45:03;;;;;;;17.08;12.25;;;;;;;;;;5062380;28;20197;-68
2022/04/04 04:47:30;;;;;;;17.83;13.57;;;;;;;;;;5062023;28;20212;-68
2022/04/04 04:49:57;;;;;;;18.90;13.93;;;;;;;;;;5062092;28;20421;-68
2022/04/04 04:52:24;;;;;;;15.98;12.93;;;;;;;;;;5062397;28;20227;-67
2022/04/04 04:54:50;;;;;;;17.20;12.68;;;;;;;;;;5062394;28;20203;-68
2022/04/04 04:57:16;;;;;;;17.98;13.35;;;;;;;;;;5061876;28;20212;-67
2022/04/04 04:59:43;;;;;;;17.05;14.02;;;;;;;;;;5062220;28;20318;-68
2022/04/04 05:02:09;;;;;;;19.85;14.60;;;;;;;;;;5062048;28;20217;-68
2022/04/04 05:04:35;;;;;;;17.92;13.68;;;;;;;;;;5061985;28;20394;-68
2022/04/04 05:07:03;;;;;;;15.98;12.30;;;;;;;;;;5061993;28;20201;-68
2022/04/04 05:09:29;;;;;;;18.02;12.85;;;;;;;;;;5062170;28;20584;-68
2022/04/04 05:11:56;;;;;;;17.20;13.13;;;;;;;;;;5061884;28;20204;-68
2022/04/04 05:14:22;;;;;;;14.45;12.85;;;;;;;;;;5064641;28;20197;-68
2022/04/04 05:16:48;;;;;;;16.85;13.52;;;;;;;;;;5065789;28;20196;-68
2022/04/04 05:19:17;;;;;;;20.13;13.63;;;;;;;;;;5065886;28;20500;-68
2022/04/04 05:21:43;;;;;;;16.90;12.57;;;;;;;;;;5065703;28;20197;-68
2022/04/04 05:24:10;;;;;;;16.52;12.77;;;;;;;;;;5065552;28;20220;-68
2022/04/04 05:26:37;;;;;;;13.25;11.80;;;;;;;;;;5065170;28;20208;-68
2022/04/04 05:29:03;;;;;;;16.60;12.95;;;;;;;;;;5065624;28;20219;-68
2022/04/04 05:31:30;;;;;;;16.42;12.27;;;;;;;;;;5065947;28;20197;-68
2022/04/04 05:33:57;;;;;;;15.48;11.85;;;;;;;;;;5065361;28;20554;-67
2022/04/04 05:36:24;;;;;;;15.88;12.73;;;;;;;;;;5065354;28;20197;-67
2022/04/04 05:38:50;;;;;;;14.10;11.70;;;;;;;;;;5065402;28;20229;-67
2022/04/04 05:41:18;;;;;;;17.40;12.40;;;;;;;;;;5065270;28;20212;-68
2022/04/04 05:43:45;;;;;;;17.55;11.93;;;;;;;;;;5065391;28;20220;-67
2022/04/04 05:46:11;;;;;;;17.02;12.52;;;;;;;;;;5065174;28;20204;-68
2022/04/04 05:48:37;;;;;;;16.27;12.35;;;;;;;;;;5065388;28;20209;-68
2022/04/04 05:51:04;;;;;;;15.80;10.68;;;;;;;;;;5065559;28;20201;-68
2022/04/04 05:53:30;;;;;;;17.08;12.00;;;;;;;;;;5065523;28;20215;-68
2022/04/04 05:55:56;;;;;;;15.05;11.65;;;;;;;;;;5065234;28;20193;-67
2022/04/04 05:58:24;;;;;;;17.02;11.68;;;;;;;;;;5064982;28;20201;-67
2022/04/04 06:00:51;;;;;;;14.82;11.48;;;;;;;;;;5064936;28;20497;-67
2022/04/04 06:03:18;;;;;;;15.80;11.73;;;;;;;;;;5064835;28;20414;-67
2022/04/04 06:05:46;;;;;;;15.07;12.23;;;;;;;;;;5065137;28;20255;-67
2022/04/04 06:08:12;;;;;;;18.42;12.88;;;;;;;;;;5064683;28;20570;-67
2022/04/04 06:10:39;;;;;;;19.75;13.55;;;;;;;;;;5064949;28;20519;-68
2022/04/04 06:13:05;;;;;;;16.17;13.15;;;;;;;;;;5064812;28;20193;-68
2022/04/04 06:15:32;;;;;;;16.48;13.23;;;;;;;;;;5064836;28;20204;-68
2022/04/04 06:18:00;;;;;;;17.42;12.65;;;;;;;;;;5064845;28;20197;-69
2022/04/04 06:20:26;;;;;;;15.30;12.43;;;;;;;;;;5064873;28;20197;-66
2022/04/04 06:22:52;;;;;;;15.98;12.52;;;;;;;;;;5064794;28;20221;-67
2022/04/04 06:25:21;;;;;;;18.55;13.65;;;;;;;;;;5064465;28;20388;-67
2022/04/04 06:27:47;;;;;;;14.55;11.40;;;;;;;;;;5064872;28;20196;-67
2022/04/04 06:30:14;;;;;;;19.58;12.15;;;;;;;;;;5064784;28;20219;-67
2022/04/04 06:32:43;;;;;;;14.15;11.98;;;;;;;;;;5064769;28;20378;-66
2022/04/04 06:35:10;;;;;;;16.85;12.85;;;;;;;;;;5064592;28;20219;-67
2022/04/04 06:37:36;;;;;;;18.08;12.63;;;;;;;;;;5064321;28;20213;-67
2022/04/04 06:40:03;;;;;;;16.30;13.32;;;;;;;;;;5064387;28;20197;-66
2022/04/04 06:42:30;;;;;;;15.88;12.00;;;;;;;;;;5064432;28;20197;-67
2022/04/04 06:44:58;;;;;;;18.10;12.43;;;;;;;;;;5064503;28;20500;-66
2022/04/04 06:47:26;;;;;;;15.60;11.93;;;;;;;;;;5049714;28;20213;-68
2022/04/04 06:49:54;;;;;;;18.20;12.57;;;;;;;;;;5063171;28;20492;-67
2022/04/04 06:52:20;;;;;;;13.07;11.40;;;;;;;;;;5066777;28;20216;-66
2022/04/04 06:54:48;;;;;;;16.33;11.27;;;;;;;;;;5057974;28;20210;-67
2022/04/04 06:57:15;;;;;;;19.25;12.13;;;;;;;;;;5050557;28;20257;-68
2022/04/04 06:59:42;;;;;;;20.75;12.50;;;;;;;;;;5051918;28;20209;-67
2022/04/04 07:02:08;;;;;;;14.80;11.68;;;;;;;;;;5061656;28;20296;-67
2022/04/04 07:04:34;;;;;;;14.35;11.27;;;;;;;;;;5070122;28;20224;-67
2022/04/04 07:07:02;;;;;;;12.93;11.32;;;;;;;;;;5055793;28;20255;-67
2022/04/04 07:09:28;;;;;;;14.32;11.38;;;;;;;;;;5055326;28;20443;-68
2022/04/04 07:11:55;;;;;;;14.07;11.60;;;;;;;;;;5053884;28;20218;-68
2022/04/04 07:14:21;;;;;;;15.10;11.65;;;;;;;;;;5049596;28;20208;-68
2022/04/04 07:16:51;;;;;;;14.63;12.07;;;;;;;;;;5055492;28;20263;-67
2022/04/04 07:19:18;;;;;;;14.32;11.57;;;;;;;;;;5055522;28;20211;-68
2022/04/04 07:21:44;;;;;;;13.43;11.55;;;;;;;;;;5055624;28;20217;-67
2022/04/04 07:24:12;;;;;;;16.95;10.88;;;;;;;;;;5054558;28;20224;-61
2022/04/04 07:26:38;;;;;;;15.13;12.68;;;;;;;;;;5057729;28;20217;-62
2022/04/04 07:29:04;;;;;;;13.38;11.23;;;;;;;;;;5057520;28;20209;-61
2022/04/04 07:31:31;;;;;;;12.73;11.40;;;;;;;;;;5057549;28;20205;-62
2022/04/04 07:33:57;;;;;;;16.95;11.23;;;;;;;;;;5057966;28;20247;-62
2022/04/04 07:36:23;;;;;;;13.38;10.73;;;;;;;;;;5047775;28;20256;-62
2022/04/04 07:38:50;;;;;;;13.95;10.63;;;;;;;;;;5054449;28;20217;-62
2022/04/04 07:41:18;;;;;;;14.88;11.10;;;;;;;;;;5054657;28;20299;-62
2022/04/04 07:43:44;;;;;;;11.55;10.27;;;;;;;;;;5055205;28;20424;-61
2022/04/04 07:46:11;;;;;;;14.27;10.48;;;;;;;;;;5054692;28;20271;-62
2022/04/04 07:48:38;;;;;;;15.73;10.93;;;;;;;;;;5051368;28;20214;-61
2022/04/04 07:51:04;;;;;;;10.70;9.60;;;;;;;;;;5054727;28;20208;-61
2022/04/04 07:53:30;;;;;;;12.90;10.63;;;;;;;;;;5055149;28;20204;-61
2022/04/04 07:55:57;;;;;;;12.98;10.52;;;;;;;;;;5056203;28;20440;-61
2022/04/04 07:58:24;;;;;;;15.57;10.35;;;;;;;;;;5076453;28;20461;-62
2022/04/04 08:00:52;;;;;;;15.25;9.82;;;;;;;;;;5077275;28;20209;-61
2022/04/04 08:03:19;;;;;;;12.00;10.70;;;;;;;;;;5061010;28;20543;-60
2022/04/04 08:05:45;;;;;;;10.73;9.73;;;;;;;;;;5056941;28;20256;-61
2022/04/04 08:08:12;;;;;;;11.95;10.15;;;;;;;;;;5056279;28;20213;-60
2022/04/04 08:10:38;;;;;;;11.35;10.15;;;;;;;;;;5057007;28;20213;-61
2022/04/04 08:13:04;;;;;;;11.75;10.55;;;;;;;;;;5056687;28;20213;-61
2022/04/04 08:15:32;;;;;;;12.70;9.55;;;;;;;;;;5057374;28;20208;-61
2022/04/04 08:17:59;;;;;;;14.48;9.60;;;;;;;;;;5056347;28;20251;-61
2022/04/04 08:20:25;;;;;;;12.18;10.18;;;;;;;;;;5056728;28;20795;-61
2022/04/04 08:22:51;;;;;;;12.77;9.30;;;;;;;;;;5056351;28;20564;-61
2022/04/04 08:25:17;;;;;;;10.52;9.43;;;;;;;;;;5056906;28;20535;-61
2022/04/04 08:27:44;;;;;;;14.43;9.18;;;;;;;;;;5056173;28;20267;-61
2022/04/04 08:30:12;;;;;;;9.73;8.73;;;;;;;;;;5056790;28;20240;-61
2022/04/04 08:32:39;;;;;;;11.63;8.07;;;;;;;;;;5056956;28;20209;-61
2022/04/04 08:35:06;;;;;;;10.40;8.65;;;;;;;;;;5056075;28;20216;-61
2022/04/04 08:37:33;;;;;;;10.00;8.32;;;;;;;;;;5055989;28;20258;-61
2022/04/04 08:39:59;;;;;;;9.55;8.18;;;;;;;;;;5056676;28;20213;-61
2022/04/04 08:42:27;;;;;;;8.07;7.28;;;;;;;;;;5057004;28;20209;-61
2022/04/04 08:44:55;;;;;;;8.05;6.50;;;;;;;;;;5055829;28;20239;-61
2022/04/04 08:47:22;;;;;;;8.18;7.25;;;;;;;;;;5055133;28;20209;-60
2022/04/04 08:49:49;;;;;;;8.70;6.68;;;;;;;;;;5055809;28;20284;-61
2022/04/04 08:52:16;;;;;;;8.48;7.57;;;;;;;;;;5056328;28;20409;-61
2022/04/04 08:54:42;;;;;;;7.68;6.97;;;;;;;;;;5055825;28;20399;-60
2022/04/04 08:57:09;;;;;;;7.45;6.82;;;;;;;;;;5055568;28;20213;-60
2022/04/04 08:59:35;;;;;;;9.90;6.72;;;;;;;;;;5055652;28;20205;-62
2022/04/04 09:02:01;;;;;;;8.35;7.55;;;;;;;;;;5056364;28;20209;-62
2022/04/04 09:04:29;;;;;;;7.18;6.57;;;;;;;;;;5055648;28;20295;-62
2022/04/04 09:06:57;;;;;;;7.78;7.10;;;;;;;;;;5055408;28;20228;-62
2022/04/04 09:09:25;;;;;;;7.53;6.75;;;;;;;;;;5056214;28;20236;-63
2022/04/04 09:11:52;;;;;;;6.50;6.07;;;;;;;;;;5056527;28;20213;-63
2022/04/04 09:14:21;;;;;;;6.35;5.90;;;;;;;;;;5056515;28;20247;-62
2022/04/04 09:16:53;;;;;;;6.90;6.00;;;;;;;;;;5055404;28;20217;-62
2022/04/04 09:19:27;;;;;;;6.28;5.55;;;;;;;;;;5056316;28;20516;-62
2022/04/04 09:21:53;;;;;;;5.68;5.28;;;;;;;;;;5056015;28;20283;-62
2022/04/04 09:24:21;;;;;;;6.75;6.05;;;;;;;;;;5068756;28;20281;-62
2022/04/04 09:26:48;;;;;;;6.53;5.93;;;;;;;;;;5063506;28;20221;-62
2022/04/04 09:29:16;;;;;;;7.05;6.45;;;;;;;;;;5055979;28;20203;-62
2022/04/04 09:31:52;;;;;;;5.82;5.40;;;;;;;;;;5055831;28;20228;-62
2022/04/04 09:34:19;;;;;;;12.13;9.80;;;;;;;;;;5056596;28;20247;-62
2022/04/04 09:36:46;;;;;;;8.35;7.43;;;;;;;;;;5055525;28;20213;-62
2022/04/04 09:39:14;;;;;;;17.38;10.65;;;;;;;;;;5056050;28;20232;-62
2022/04/04 09:41:42;;;;;;;6.60;5.80;;;;;;;;;;5055478;28;20213;-62
2022/04/04 09:44:09;;;;;;;5.78;5.25;;;;;;;;;;5055759;28;20509;-61
2022/04/04 09:46:36;;;;;;;12.40;8.95;;;;;;;;;;5054352;28;20537;-62
2022/04/04 09:49:06;;;;;;;9.35;7.85;;;;;;;;;;5055785;28;20213;-61
2022/04/04 09:51:41;;;;;;;7.40;6.13;;;;;;;;;;5055989;28;20521;-62
2022/04/04 09:54:08;;;;;;;12.50;8.73;;;;;;;;;;5055928;28;20219;-60
2022/04/04 09:56:34;;;;;;;12.98;7.32;;;;;;;;;;5055618;28;20232;-62
2022/04/04 09:59:02;;;;;;;7.30;6.53;;;;;;;;;;5055503;28;20209;-62
2022/04/04 10:01:30;;;;;;;11.38;8.93;;;;;;;;;;5059599;28;20213;-62
2022/04/04 10:03:57;;;;;;;15.27;8.90;;;;;;;;;;5059891;28;20536;-57
2022/04/04 10:06:26;;;;;;;6.38;5.70;;;;;;;;;;5058969;28;20229;-58
2022/04/04 10:08:54;;;;;;;4.88;4.53;;;;;;;;;;5058612;28;20213;-60
2022/04/04 10:11:21;;;;;;;5.43;5.00;;;;;;;;;;5059198;28;20528;-60
2022/04/04 10:13:47;;;;;;;5.32;4.93;;;;;;;;;;5058993;28;20427;-59
2022/04/04 10:16:16;;;;;;;4.57;4.35;;;;;;;;;;5058627;28;20209;-58
2022/04/04 10:18:43;;;;;;;4.97;4.57;;;;;;;;;;5058397;28;20213;-57
2022/04/04 10:21:09;;;;;;;5.40;5.00;;;;;;;;;;5059144;28;20216;-58
2022/04/04 10:23:37;;;;;;;5.25;4.93;;;;;;;;;;5059481;28;20563;-56
2022/04/04 10:26:03;;;;;;;4.32;4.03;;;;;;;;;;5059187;28;20217;-60
2022/04/04 10:28:31;;;;;;;5.05;4.75;;;;;;;;;;5058405;28;20201;-57
2022/04/04 10:30:58;;;;;;;5.60;5.10;;;;;;;;;;5059298;28;20217;-58
2022/04/04 10:33:27;;;;;;;7.15;5.22;;;;;;;;;;5058822;28;20217;-58
2022/04/04 10:36:00;;;;;;;5.40;5.00;;;;;;;;;;5058869;28;20247;-58
2022/04/04 10:38:29;;;;;;;5.45;4.93;;;;;;;;;;5058635;28;20208;-58
2022/04/04 10:40:56;;;;;;;5.63;5.07;;;;;;;;;;5058289;28;20221;-58
2022/04/04 10:43:22;;;;;;;6.75;6.05;;;;;;;;;;5058847;28;20201;-57
2022/04/04 10:45:52;;;;;;;6.25;5.75;;;;;;;;;;5058596;28;20598;-58
2022/04/04 10:48:19;;;;;;;5.35;4.95;;;;;;;;;;5057925;28;20270;-58
2022/04/04 10:50:47;;;;;;;6.05;5.45;;;;;;;;;;5058124;28;20220;-58
2022/04/04 10:53:13;;;;;;;6.00;5.60;;;;;;;;;;5058649;28;20560;-58
2022/04/04 10:55:44;;;;;;;5.90;5.43;;;;;;;;;;5058558;28;20516;-58
2022/04/04 10:58:12;;;;;;;6.22;5.50;;;;;;;;;;5057803;28;20239;-57
2022/04/04 11:00:53;;;;;;;6.40;5.85;;;;;;;;;;5057931;28;20213;-56
2022/04/04 11:03:26;;;;;;;6.90;6.30;;;;;;;;;;5058182;28;20205;-58
2022/04/04 11:08:44;;;;;;;6.88;6.25;;;;;;;;;;5057930;28;20251;-60
2022/04/04 11:11:15;;;;;;;6.18;5.57;;;;;;;;;;5056199;28;20467;-58
2022/04/04 11:13:50;;;;;;;11.63;8.52;;;;;;;;;;5058224;28;20216;-58
2022/04/04 11:16:17;;;;;;;6.60;6.10;;;;;;;;;;5057847;28;20236;-58
2022/04/04 11:18:53;;;;;;;6.05;5.32;;;;;;;;;;5057862;28;20283;-57
2022/04/04 11:21:34;;;;;;;6.22;5.72;;;;;;;;;;5057665;28;20213;-58
2022/04/04 11:24:07;;;;;;;7.28;5.03;;;;;;;;;;5057904;28;20213;-58
2022/04/04 11:26:33;;;;;;;5.68;5.28;;;;;;;;;;5058085;28;20216;-58
2022/04/04 11:29:00;;;;;;;5.88;5.40;;;;;;;;;;5057872;28;20209;-57
2022/04/04 11:31:26;;;;;;;5.60;5.20;;;;;;;;;;5057797;28;20213;-58
2022/04/04 11:33:54;;;;;;;6.03;5.28;;;;;;;;;;5058408;28;20209;-57
2022/04/04 11:36:23;;;;;;;5.45;5.15;;;;;;;;;;5057986;28;20443;-57
2022/04/04 11:38:51;;;;;;;5.82;5.32;;;;;;;;;;5057841;28;20213;-58
2022/04/04 11:41:20;;;;;;;6.90;6.18;;;;;;;;;;5057674;28;20481;-58
2022/04/04 11:43:48;;;;;;;5.47;5.03;;;;;;;;;;5057304;28;20367;-58
2022/04/04 11:46:19;;;;;;;7.50;5.28;;;;;;;;;;5057236;28;20533;-58
2022/04/04 11:48:48;;;;;;;5.70;5.05;;;;;;;;;;5056618;28;20236;-59
2022/04/04 11:51:15;;;;;;;4.90;4.50;;;;;;;;;;5057553;28;20205;-56
2022/04/04 11:53:41;;;;;;;5.00;4.55;;;;;;;;;;5056916;28;20216;-57
2022/04/04 11:56:12;;;;;;;5.03;4.70;;;;;;;;;;5057054;28;20205;-58
2022/04/04 11:58:51;;;;;;;5.68;4.28;;;;;;;;;;5057231;28;20209;-56
2022/04/04 12:01:17;;;;;;;4.97;4.57;;;;;;;;;;5057869;28;20247;-58
2022/04/04 12:03:49;;;;;;;5.45;5.05;;;;;;;;;;5057141;28;20217;-58
2022/04/04 12:06:16;;;;;;;5.85;5.35;;;;;;;;;;5057454;28;20292;-58
2022/04/04 12:08:44;;;;;;;4.80;4.40;;;;;;;;;;5057291;28;20255;-57
2022/04/04 12:11:11;;;;;;;5.22;4.85;;;;;;;;;;5057498;28;20209;-58
2022/04/04 12:13:53;;;;;;;5.55;4.88;;;;;;;;;;5056599;28;20463;-57
2022/04/04 12:16:20;;;;;;;5.47;4.82;;;;;;;;;;5056929;28;20226;-57
2022/04/04 12:18:53;;;;;;;4.82;4.40;;;;;;;;;;5056863;28;20209;-61
2022/04/04 12:21:20;;;;;;;5.10;4.60;;;;;;;;;;5056906;28;20204;-62
2022/04/04 12:26:31;;;;;;;4.72;4.43;;;;;;;;;;5056452;28;20217;-62
2022/04/04 12:28:58;;;;;;;4.10;3.85;;;;;;;;;;5056588;28;20259;-62
2022/04/04 12:31:26;;;;;;;4.45;4.05;;;;;;;;;;5056888;28;20217;-61
2022/04/04 12:33:53;;;;;;;5.05;4.60;;;;;;;;;;5056469;28;20213;-62
2022/04/04 12:36:25;;;;;;;5.35;4.80;;;;;;;;;;5055442;28;20524;-60
2022/04/04 12:38:57;;;;;;;5.32;4.40;;;;;;;;;;5056123;28;20216;-60
2022/04/04 12:41:24;;;;;;;4.90;4.50;;;;;;;;;;5056453;28;20271;-60
2022/04/04 12:43:59;;;;;;;5.15;4.75;;;;;;;;;;5056300;28;20250;-60
2022/04/04 12:46:27;;;;;;;5.57;5.00;;;;;;;;;;5055032;28;20244;-61
2022/04/04 12:48:54;;;;;;;4.80;4.50;;;;;;;;;;5056062;28;20212;-61
2022/04/04 12:51:27;;;;;;;15.77;10.30;;;;;;;;;;5056562;28;20235;-61
2022/04/04 12:53:54;;;;;;;11.73;10.55;;;;;;;;;;5056551;28;20574;-61
2022/04/04 12:56:20;;;;;;;5.13;4.72;;;;;;;;;;5055638;28;20209;-60
2022/04/04 13:01:39;;;;;;;5.63;4.70;;;;;;;;;;5114277;27;20596;-60
2022/04/04 13:04:17;;;;;;;6.03;5.43;;;;;;;;;;5114402;28;20240;-60
2022/04/04 13:06:43;;;;;;;5.95;4.72;;;;;;;;;;5113328;28;20226;-61
2022/04/04 13:09:09;;;;;;;5.97;5.38;;;;;;;;;;5114204;28;20210;-60
2022/04/04 13:11:46;;;;;;;6.30;5.88;;;;;;;;;;5114131;28;20203;-60
2022/04/04 13:14:12;;;;;;;6.40;5.90;;;;;;;;;;5113893;28;20207;-61
2022/04/04 13:16:40;;;;;;;6.38;5.57;;;;;;;;;;5113050;28;20214;-61
2022/04/04 13:19:07;;;;;;;6.18;5.55;;;;;;;;;;5113825;28;20517;-61
2022/04/04 13:21:34;;;;;;;7.70;7.00;;;;;;;;;;5113634;28;20250;-61
2022/04/04 13:24:00;;;;;;;6.32;5.72;;;;;;;;;;5114263;28;20207;-59
2022/04/04 13:26:27;;;;;;;6.60;5.85;;;;;;;;;;5113920;28;20203;-61
2022/04/04 13:28:53;;;;;;;8.80;6.05;;;;;;;;;;5112861;28;20215;-61
2022/04/04 13:31:20;;;;;;;5.75;5.30;;;;;;;;;;5113973;28;20207;-60
2022/04/04 13:33:48;;;;;;;5.53;5.22;;;;;;;;;;5113746;28;20238;-61
2022/04/04 13:36:14;;;;;;;6.18;5.47;;;;;;;;;;5113407;28;20207;-60
2022/04/04 13:38:40;;;;;;;5.82;5.35;;;;;;;;;;5112565;28;20211;-60
2022/04/04 13:41:07;;;;;;;5.80;5.30;;;;;;;;;;5113192;28;20219;-58
2022/04/04 13:43:33;;;;;;;5.47;5.18;;;;;;;;;;5112965;28;20208;-60
2022/04/04 13:45:59;;;;;;;6.05;5.45;;;;;;;;;;5112996;28;20207;-59
2022/04/04 13:48:25;;;;;;;6.38;5.57;;;;;;;;;;5112452;28;20218;-60
2022/04/04 13:50:54;;;;;;;5.65;5.25;;;;;;;;;;5113489;28;20210;-59
2022/04/04 13:53:20;;;;;;;5.50;5.00;;;;;;;;;;5112950;28;20218;-60
2022/04/04 13:55:46;;;;;;;5.45;4.95;;;;;;;;;;5112664;28;20214;-60
2022/04/04 13:58:13;;;;;;;5.85;5.13;;;;;;;;;;5111728;28;20208;-60
2022/04/04 14:00:39;;;;;;;6.03;5.63;;;;;;;;;;5112435;28;20264;-61
2022/04/04 14:03:06;;;;;;;7.65;5.53;;;;;;;;;;5112497;28;20207;-61
2022/04/04 14:05:32;;;;;;;6.25;5.50;;;;;;;;;;5112328;28;20227;-60
2022/04/04 14:08:00;;;;;;;5.50;5.00;;;;;;;;;;5111872;28;20252;-60
2022/04/04 14:10:27;;;;;;;5.68;5.28;;;;;;;;;;5111745;28;20265;-60
2022/04/04 14:12:53;;;;;;;5.43;5.03;;;;;;;;;;5099536;28;20401;-60
2022/04/04 14:15:19;;;;;;;7.82;5.10;;;;;;;;;;5099037;28;20208;-60
2022/04/04 14:17:45;;;;;;;5.32;5.03;;;;;;;;;;5098401;28;20204;-60
2022/04/04 14:20:13;;;;;;;5.85;5.35;;;;;;;;;;5098133;28;20277;-60
2022/04/04 14:22:39;;;;;;;6.10;5.57;;;;;;;;;;5098614;28;20208;-61
2022/04/04 14:25:07;;;;;;;5.88;5.38;;;;;;;;;;5098197;28;20449;-61
2022/04/04 14:27:33;;;;;;;5.57;5.13;;;;;;;;;;5097740;28;20203;-61
2022/04/04 14:30:00;;;;;;;5.30;5.00;;;;;;;;;;5097399;28;20275;-61
2022/04/04 14:32:26;;;;;;;5.93;5.28;;;;;;;;;;5090970;28;20515;-60
2022/04/04 14:34:52;;;;;;;6.43;5.82;;;;;;;;;;5097935;28;20208;-61
2022/04/04 14:37:19;;;;;;;5.80;5.32;;;;;;;;;;5097883;28;20212;-60